Κάμερα προς Χιονοδρομικό webcam facing ski center


Κάμερα προς Νότο webcam facing south


Ραντάρ Κεραυνών blitzortung!


Ραντάρ Βροχής rain snow radar


Άλλες σελίδες καιρού:

Hotel Skamnos

Arachova Weather Station

Skamnos Weather Station

Skamnos Weather2

Arachova Weather2

WU Skamnos

WU Arachova


Γειτονικοί σταθμοί:

Parnassos Snow Forecast

Parnassos Snow Report

Kelaria 1950m

Kelaria 2240m

Fterolaka 2080m



No particular awareness of the weather is required.    There are no Weather-warnings

Εκθέσεις METAR

  
1089 - Arachova Meteo, Greece
Distance from station: Ν 10km
Updated: 22-11-2017 21:34
Μερικώς νεφελώδης
Μερικώς νεφελώδης  
 Ανεμος από calm
'Ανεμος: Άπνοια
Θερμοκρασία:  9°C
Σημείο Δρόσου:  3°C
Υγρασία:  66%
Βαρόμετρο:  1020 hPa
Νεφελώδης:  Μερικώς νεφελώδης
Visibility:  10 km
Cloud details:  Μερικώς νεφελώδης 823 m
2017/11/22 19:34 1089 221934Z 00000KT 9999 SCT027 09/03 Q1020
1155 - Arachova2, Greece
Distance from station: Ν 10km
Updated: 02-11-2017 14:04
NOT Current
Λίγα σύννεφα
Λίγα σύννεφα  
 Ανεμος από ΑΝΑ
'Ανεμος: ΑΝΑ 9 km/h
Θερμοκρασία:  11°C
Σημείο Δρόσου:  6°C
Υγρασία:  72%
Βαρόμετρο:  1023 hPa
Νεφελώδης:  Λίγα σύννεφα
Visibility:  9 km
Cloud details:  Λίγα σύννεφα 549 m
2017/11/02 12:04 1155 021204Z 11205KT 9000 FEW018 11/06 Q1023
1184 - Arachova VillaFiloxenia, Greece
Distance from station: Ν 10km
Updated: 09-05-2017 15:04
NOT Current
Μερικώς νεφελώδης
Μερικώς νεφελώδης  
 Ανεμος από calm
'Ανεμος: Άπνοια
Θερμοκρασία:  17°C
Σημείο Δρόσου:  9°C
Υγρασία:  59%
Βαρόμετρο:  1007 hPa
Νεφελώδης:  Μερικώς νεφελώδης
Visibility:  10 km
Cloud details:  Μερικώς νεφελώδης 1006 m
2017/05/09 12:04 1184 091204Z 00000KT 9999 SCT033 17/09 Q1007
1250 - Parnassos Kelaria 1950m, Greece
Distance from station: Α 3km
Updated: 02-11-2017 14:04
NOT Current
Μερικώς νεφελώδης
Μερικώς νεφελώδης  
 Ανεμος από Α
'Ανεμος: Α 4 km/h
Θερμοκρασία:  5°C
Σημείο Δρόσου:  1°C
Υγρασία:  76%
Βαρόμετρο:  1022 hPa
Νεφελώδης:  Μερικώς νεφελώδης
Visibility:  9 km
Cloud details:  Μερικώς νεφελώδης 457 m
2017/11/02 12:04 1250 021204Z 09002KT 9000 SCT015 05/01 Q1022
1126 - Parnassos Fterolaka 2080m, Greece
Distance from station: Α 3km
Updated: 21-03-2015 01:04
NOT Current
Λίγα σύννεφα
Λίγα σύννεφα  
 Ανεμος από calm
'Ανεμος: Άπνοια
Θερμοκρασία:  -11°C
Σημείο Δρόσου:  -11°C
Υγρασία:  100%
Βαρόμετρο:  1019 hPa
Νεφελώδης:  Λίγα σύννεφα
Visibility:  6 km
Cloud details:  Λίγα σύννεφα 305 m
2015/03/20 23:04 1126 202304Z 00000KT 6000 FEW010 M11/M11 Q1019
1382 - Parnassos Helcules 2240m, Greece
Distance from station: Α 3km
Updated: 02-11-2017 14:04
NOT Current
Μερικώς νεφελώδης
Μερικώς νεφελώδης  
 Ανεμος από calm
'Ανεμος: Άπνοια
Θερμοκρασία:  2°C
Σημείο Δρόσου:  -1°C
Υγρασία:  81%
Βαρόμετρο:  1022 hPa
Νεφελώδης:  Μερικώς νεφελώδης
Visibility:  8 km
Cloud details:  Μερικώς νεφελώδης 335 m
2017/11/02 12:04 1382 021204Z 00000KT 8000 SCT011 02/M01 Q1022
1219 - Anrikyra, Greece
Distance from station: Ν 40km
Updated: 02-11-2017 14:04
NOT Current
Αίθριος
Αίθριος  
 Ανεμος από ΝΑ
'Ανεμος: ΝΑ 13 km/h
Θερμοκρασία:  15°C
Σημείο Δρόσου:  9°C
Υγρασία:  68%
Βαρόμετρο:  1019 hPa
Νεφελώδης:  Αίθριος
Visibility:  9 km
2017/11/02 12:04 1219 021204Z 13507KT 9000 SKC 15/09 Q1019
1015 - Galaxeidi, Greece
Distance from station: Ν 40km
Updated: 02-11-2017 14:03
NOT Current
Αίθριος
Αίθριος  
 Ανεμος από ΝΑ
'Ανεμος: ΝΑ 11 km/h
Θερμοκρασία:  18°C
Σημείο Δρόσου:  9°C
Υγρασία:  56%
Βαρόμετρο:  1030 hPa
Νεφελώδης:  Αίθριος
Visibility:  10 km
2017/11/02 12:03 1015 021203Z 13506KT 9999 SKC 18/09 Q1030
1088 - Amfikleia, Greece
Distance from station: Β 10km
Updated: 02-11-2017 14:04
NOT Current
Αίθριος
Αίθριος  
 Ανεμος από calm
'Ανεμος: Άπνοια
Θερμοκρασία:  16°C
Σημείο Δρόσου:  7°C
Υγρασία:  55%
Βαρόμετρο:  1021 hPa
Νεφελώδης:  Αίθριος
Visibility:  10 km
2017/11/02 12:04 1088 021204Z 00000KT 9999 SKC 16/07 Q1021
1337 - Polydroso, Greece
Distance from station: Β 10km
Updated: 02-11-2017 14:04
NOT Current
Λίγα σύννεφα
Λίγα σύννεφα  
 Ανεμος από calm
'Ανεμος: Άπνοια
Θερμοκρασία:  18°C
Σημείο Δρόσου:  8°C
Υγρασία:  52%
Βαρόμετρο:  1021 hPa
Νεφελώδης:  Λίγα σύννεφα
Visibility:  10 km
Cloud details:  Λίγα σύννεφα 1219 m
2017/11/02 12:04 1337 021204Z 00000KT 9999 FEW040 18/08 Q1021

Αρχικά scripts από  Saratoga-weather.org Adapted for the template by  Weerstation Leuven